地図

経路データ

SID SEASON NUMBER BASIN SUBBASIN NAME ISO_TIME NATURE LAT LON WMO_WIND WMO_PRES WMO_AGENCY TRACK_TYPE DIST2LAND LANDFALL IFLAG USA_AGENCY USA_ATCF_ID USA_LAT USA_LON USA_RECORD USA_STATUS USA_WIND USA_PRES USA_SSHS USA_R34_NE USA_R34_SE USA_R34_SW USA_R34_NW USA_R50_NE USA_R50_SE USA_R50_SW USA_R50_NW USA_R64_NE USA_R64_SE USA_R64_SW USA_R64_NW USA_POCI USA_ROCI USA_RMW USA_EYE TOKYO_LAT TOKYO_LON TOKYO_GRADE TOKYO_WIND TOKYO_PRES TOKYO_R50_DIR TOKYO_R50_LONG TOKYO_R50_SHORT TOKYO_R30_DIR TOKYO_R30_LONG TOKYO_R30_SHORT TOKYO_LAND CMA_LAT CMA_LON CMA_CAT CMA_WIND CMA_PRES HKO_LAT HKO_LON HKO_CAT HKO_WIND HKO_PRES NEWDELHI_LAT NEWDELHI_LON NEWDELHI_GRADE NEWDELHI_WIND NEWDELHI_PRES NEWDELHI_CI NEWDELHI_DP NEWDELHI_POCI REUNION_LAT REUNION_LON REUNION_TYPE REUNION_WIND REUNION_PRES REUNION_TNUM REUNION_CI REUNION_RMW REUNION_R34_NE REUNION_R34_SE REUNION_R34_SW REUNION_R34_NW REUNION_R50_NE REUNION_R50_SE REUNION_R50_SW REUNION_R50_NW REUNION_R64_NE REUNION_R64_SE REUNION_R64_SW REUNION_R64_NW BOM_LAT BOM_LON BOM_TYPE BOM_WIND BOM_PRES BOM_TNUM BOM_CI BOM_RMW BOM_R34_NE BOM_R34_SE BOM_R34_SW BOM_R34_NW BOM_R50_NE BOM_R50_SE BOM_R50_SW BOM_R50_NW BOM_R64_NE BOM_R64_SE BOM_R64_SW BOM_R64_NW BOM_ROCI BOM_POCI BOM_EYE BOM_POS_METHOD BOM_PRES_METHOD NADI_LAT NADI_LON NADI_CAT NADI_WIND NADI_PRES WELLINGTON_LAT WELLINGTON_LON WELLINGTON_WIND WELLINGTON_PRES DS824_LAT DS824_LON DS824_STAGE DS824_WIND DS824_PRES TD9636_LAT TD9636_LON TD9636_STAGE TD9636_WIND TD9636_PRES TD9635_LAT TD9635_LON TD9635_WIND TD9635_PRES TD9635_ROCI NEUMANN_LAT NEUMANN_LON NEUMANN_CLASS NEUMANN_WIND NEUMANN_PRES MLC_LAT MLC_LON MLC_CLASS MLC_WIND MLC_PRES USA_GUST BOM_GUST BOM_GUST_PER REUNION_GUST REUNION_GUST_PER USA_SEAHGT USA_SEARAD_NE USA_SEARAD_SE USA_SEARAD_SW USA_SEARAD_NW STORM_SPEED STORM_DIR
1963262N14322 1963 88 NA NA DEBRA 1963-09-19 06:00:00 TS 14.0000 -38.3000 25 hurdat_atl main 1793 1760 O_____________ hurdat_atl AL051963 14.0000 -38.3000 TD 25 -1 17 299
1963262N14322 1963 88 NA NA DEBRA 1963-09-19 09:00:00 TS 14.4005 -39.0594 main 1751 1723 P_____________ AL051963 14.4005 -39.0594 TD 25 -1 17 299
1963262N14322 1963 88 NA NA DEBRA 1963-09-19 12:00:00 TS 14.8000 -39.8000 25 hurdat_atl main 1723 1699 O_____________ hurdat_atl AL051963 14.8000 -39.8000 TD 25 -1 16 300
1963262N14322 1963 88 NA NA DEBRA 1963-09-19 15:00:00 TS 15.1997 -40.5078 main 1699 1679 P_____________ AL051963 15.1997 -40.5078 TD 27 -1 16 301
1963262N14322 1963 88 NA NA DEBRA 1963-09-19 18:00:00 TS 15.6000 -41.2000 30 hurdat_atl main 1680 1663 O_____________ hurdat_atl AL051963 15.6000 -41.2000 TD 30 -1 16 301
1963262N14322 1963 88 NA NA DEBRA 1963-09-19 21:00:00 TS 15.9998 -41.9003 main 1665 1652 P_____________ AL051963 15.9998 -41.9003 TD 35 0 16 301
1963262N14322 1963 88 NA NA DEBRA 1963-09-20 00:00:00 TS 16.4000 -42.6000 40 hurdat_atl main 1655 1645 O_____________ hurdat_atl AL051963 16.4000 -42.6000 TS 40 0 16 301
1963262N14322 1963 88 NA NA DEBRA 1963-09-20 03:00:00 TS 16.7998 -43.3077 main 1647 1635 P_____________ AL051963 16.7998 -43.3077 TS 42 0 16 301
1963262N14322 1963 88 NA NA DEBRA 1963-09-20 06:00:00 TS 17.2000 -44.0000 45 hurdat_atl main 1638 1629 O_____________ hurdat_atl AL051963 17.2000 -44.0000 TS 45 0 15 302
1963262N14322 1963 88 NA NA DEBRA 1963-09-20 09:00:00 TS 17.5921 -44.6505 main 1633 1631 P_____________ AL051963 17.5921 -44.6505 TS 47 0 15 303
1963262N14322 1963 88 NA NA DEBRA 1963-09-20 12:00:00 TS 18.0000 -45.3000 50 hurdat_atl main 1638 1633 O_____________ hurdat_atl AL051963 18.0000 -45.3000 TS 50 0 15 303
1963262N14322 1963 88 NA NA DEBRA 1963-09-20 15:00:00 TS 18.4350 -46.0077 main 1642 1642 P_____________ AL051963 18.4350 -46.0077 TS 50 0 16 304
1963262N14322 1963 88 NA NA DEBRA 1963-09-20 18:00:00 TS 18.9000 -46.7000 50 hurdat_atl main 1660 1660 O_____________ hurdat_atl AL051963 18.9000 -46.7000 TS 50 0 16 307
1963262N14322 1963 88 NA NA DEBRA 1963-09-20 21:00:00 TS 19.3850 -47.3600 main 1681 1681 P_____________ AL051963 19.3850 -47.3600 TS 50 0 15 311
1963262N14322 1963 88 NA NA DEBRA 1963-09-21 00:00:00 TS 19.9000 -47.9000 50 hurdat_atl main 1709 1709 O_____________ hurdat_atl AL051963 19.9000 -47.9000 TS 50 0 14 321
1963262N14322 1963 88 NA NA DEBRA 1963-09-21 03:00:00 TS 20.4422 -48.2678 main 1739 1739 P_____________ AL051963 20.4422 -48.2678 TS 50 0 12 333
1963262N14322 1963 88 NA NA DEBRA 1963-09-21 06:00:00 TS 21.0000 -48.5000 50 hurdat_atl main 1763 1763 O_____________ hurdat_atl AL051963 21.0000 -48.5000 TS 50 0 12 341
1963262N14322 1963 88 NA NA DEBRA 1963-09-21 09:00:00 TS 21.5574 -48.6877 main 1791 1791 P_____________ AL051963 21.5574 -48.6877 TS 52 0 11 346
1963262N14322 1963 88 NA NA DEBRA 1963-09-21 12:00:00 TS 22.1000 -48.8000 55 hurdat_atl main 1799 1795 O_____________ hurdat_atl AL051963 22.1000 -48.8000 TS 55 0 11 351
1963262N14322 1963 88 NA NA DEBRA 1963-09-21 15:00:00 TS 22.6300 -48.8726 main 1800 1800 P_____________ AL051963 22.6300 -48.8726 TS 60 0 10 355
1963262N14322 1963 88 NA NA DEBRA 1963-09-21 18:00:00 TS 23.1000 -48.9000 65 1000 hurdat_atl main 1812 1812 O_____________ hurdat_atl AL051963 23.1000 -48.9000 HU 65 1000 1 8 358
1963262N14322 1963 88 NA NA DEBRA 1963-09-21 21:00:00 TS 23.4650 -48.9150 main 1823 1823 P_____________ AL051963 23.4650 -48.9150 HU 65 1 7 0
1963262N14322 1963 88 NA NA DEBRA 1963-09-22 00:00:00 TS 23.8000 -48.9000 65 hurdat_atl main 1832 1832 O_____________ hurdat_atl AL051963 23.8000 -48.9000 HU 65 1 7 4
1963262N14322 1963 88 NA NA DEBRA 1963-09-22 03:00:00 TS 24.2000 -48.8575 main 1845 1845 P_____________ AL051963 24.2000 -48.8575 HU 65 1 8 6
1963262N14322 1963 88 NA NA DEBRA 1963-09-22 06:00:00 TS 24.6000 -48.8000 65 hurdat_atl main 1868 1868 O_____________ hurdat_atl AL051963 24.6000 -48.8000 HU 65 1 8 6
1963262N14322 1963 88 NA NA DEBRA 1963-09-22 09:00:00 TS 24.9725 -48.7574 main 1883 1883 P_____________ AL051963 24.9725 -48.7574 HU 65 1 7 7
1963262N14322 1963 88 NA NA DEBRA 1963-09-22 12:00:00 TS 25.3000 -48.7000 65 1002 hurdat_atl main 1904 1904 O_____________ hurdat_atl AL051963 25.3000 -48.7000 HU 65 1002 1 6 13
1963262N14322 1963 88 NA NA DEBRA 1963-09-22 15:00:00 TS 25.5500 -48.6149 main 1921 1921 P_____________ AL051963 25.5500 -48.6149 HU 62 1000 0 5 20
1963262N14322 1963 88 NA NA DEBRA 1963-09-22 18:00:00 TS 25.8000 -48.5000 60 999 hurdat_atl main 1943 1943 O_____________ hurdat_atl AL051963 25.8000 -48.5000 TS 60 999 0 6 22
1963262N14322 1963 88 NA NA DEBRA 1963-09-22 21:00:00 TS 26.1350 -48.3575 main 1965 1965 P_____________ AL051963 26.1350 -48.3575 TS 60 0 8 21
1963262N14322 1963 88 NA NA DEBRA 1963-09-23 00:00:00 TS 26.5000 -48.2000 60 hurdat_atl main 2000 2000 O_____________ hurdat_atl AL051963 26.5000 -48.2000 TS 60 0 8 22
1963262N14322 1963 88 NA NA DEBRA 1963-09-23 03:00:00 TS 26.8425 -48.0425 main 2032 2032 P_____________ AL051963 26.8425 -48.0425 TS 57 0 8 21
1963262N14322 1963 88 NA NA DEBRA 1963-09-23 06:00:00 TS 27.2000 -47.9000 55 hurdat_atl main 2059 2059 O_____________ hurdat_atl AL051963 27.2000 -47.9000 TS 55 0 8 17
1963262N14322 1963 88 NA NA DEBRA 1963-09-23 09:00:00 TS 27.5925 -47.7924 main 2087 2087 P_____________ AL051963 27.5925 -47.7924 TS 52 0 8 13
1963262N14322 1963 88 NA NA DEBRA 1963-09-23 12:00:00 TS 28.0000 -47.7000 50 hurdat_atl main 2116 2095 O_____________ hurdat_atl AL051963 28.0000 -47.7000 TS 50 0 8 15
1963262N14322 1963 88 NA NA DEBRA 1963-09-23 15:00:00 TS 28.3550 -47.5630 main 2084 2042 P_____________ AL051963 28.3550 -47.5630 TS 50 0 8 13
1963262N14322 1963 88 NA NA DEBRA 1963-09-23 18:00:00 TS 28.8000 -47.5000 50 999 hurdat_atl main 2042 1975 O_____________ hurdat_atl AL051963 28.8000 -47.5000 TS 50 999 0 11 358
1963262N14322 1963 88 NA NA DEBRA 1963-09-23 21:00:00 TS 29.4476 -47.6120 main 1975 1884 P_____________ AL051963 29.4476 -47.6120 TS 45 0 14 349
1963262N14322 1963 88 NA NA DEBRA 1963-09-24 00:00:00 TS 30.2000 -47.8000 40 hurdat_atl main 1884 1805 O_____________ hurdat_atl AL051963 30.2000 -47.8000 TS 40 0 15 349
1963262N14322 1963 88 NA NA DEBRA 1963-09-24 03:00:00 TS 30.9275 -47.9503 main 1803 1714 P_____________ AL051963 30.9275 -47.9503 TS 37 0 15 350
1963262N14322 1963 88 NA NA DEBRA 1963-09-24 06:00:00 TS 31.7000 -48.1000 35 hurdat_atl main 1714 1623 O_____________ hurdat_atl AL051963 31.7000 -48.1000 TS 35 0 16 349
1963262N14322 1963 88 NA NA DEBRA 1963-09-24 09:00:00 TS 32.5125 -48.3011 main 1623 1534 P_____________ AL051963 32.5125 -48.3011 TS 35 0 17 352
1963262N14322 1963 88 NA NA DEBRA 1963-09-24 12:00:00 TS 33.4000 -48.4000 35 1011 hurdat_atl main 1523 1428 O_____________ hurdat_atl AL051963 33.4000 -48.4000 TS 35 1011 0 19 0
1963262N14322 1963 88 NA NA DEBRA 1963-09-24 15:00:00 TS 34.3752 -48.2726 main 1418 1329 P_____________ AL051963 34.3752 -48.2726 TS 32 -1 20 9
1963262N14322 1963 88 NA NA DEBRA 1963-09-24 18:00:00 TS 35.4000 -48.0000 30 hurdat_atl main 1319 O_____________ hurdat_atl AL051963 35.4000 -48.0000 TD 30 -1 21 12

IBTrACS Databaseについて

本データベースは、米国NOAAが公開する1842年以降の世界の熱帯低気圧のベストトラックデータアーカイブInternational Best Track Archive for Climate Stewardship (IBTrACS)を、ウェブで閲覧しやすい形式に変換したものです。

最終更新日:2021-10-08